createdAt,value
2024-01-14T00:01:16.630Z,93.02
2024-01-14T00:03:43.630Z,93.97
2024-01-14T00:06:10.606Z,93.98
2024-01-14T00:08:37.495Z,89.30
2024-01-14T00:11:06.332Z,90.19
2024-01-14T00:13:33.195Z,91.02
2024-01-14T00:15:59.949Z,94.21
2024-01-14T00:18:26.863Z,87.39
2024-01-14T00:20:53.827Z,96.78
2024-01-14T00:23:20.624Z,93.38
2024-01-14T00:25:47.499Z,89.87
2024-01-14T00:28:15.682Z,95.14
2024-01-14T00:30:42.561Z,92.36
2024-01-14T00:33:09.505Z,89.71
2024-01-14T00:35:36.313Z,92.24
2024-01-14T00:38:03.301Z,92.29
2024-01-14T00:40:30.092Z,95.87
2024-01-14T00:42:56.988Z,88.84
2024-01-14T00:45:25.220Z,89.36
2024-01-14T00:47:52.144Z,88.01
2024-01-14T00:50:19.047Z,85.16
2024-01-14T00:52:45.833Z,91.96
2024-01-14T00:55:12.708Z,92.37
2024-01-14T00:57:39.620Z,89.87
2024-01-14T01:00:07.686Z,91.19
2024-01-14T01:02:36.073Z,94.97
2024-01-14T01:05:02.942Z,93.85
2024-01-14T01:07:29.815Z,89.53
2024-01-14T01:09:56.790Z,95.04
2024-01-14T01:12:23.662Z,97.81
2024-01-14T01:14:50.523Z,97.05
2024-01-14T01:17:17.358Z,94.51
2024-01-14T01:19:45.694Z,94.00
2024-01-14T01:22:13.167Z,95.68
2024-01-14T01:24:40.148Z,96.55
2024-01-14T01:27:07.147Z,91.45
2024-01-14T01:29:34.033Z,84.84
2024-01-14T01:32:07.437Z,88.89
2024-01-14T01:34:35.965Z,87.73
2024-01-14T01:37:04.898Z,92.40
2024-01-14T01:39:31.797Z,87.68
2024-01-14T01:41:58.881Z,92.41
2024-01-14T01:44:25.828Z,90.08
2024-01-14T01:46:53.141Z,87.63
2024-01-14T01:49:20.235Z,89.01
2024-01-14T01:51:48.180Z,90.49
2024-01-14T01:54:19.333Z,88.88
2024-01-14T01:56:46.784Z,91.33
2024-01-14T01:59:14.118Z,87.65
2024-01-14T02:01:41.145Z,86.71
2024-01-14T02:04:09.082Z,95.25
2024-01-14T02:06:38.898Z,89.84
2024-01-14T02:09:05.857Z,88.37
2024-01-14T02:11:34.138Z,84.53
2024-01-14T02:14:01.031Z,87.62
2024-01-14T02:16:27.964Z,88.96
2024-01-14T02:18:54.961Z,92.22
2024-01-14T02:21:26.815Z,90.69
2024-01-14T02:24:01.806Z,89.69
2024-01-14T02:26:32.880Z,85.30
2024-01-14T02:29:00.824Z,87.58
2024-01-14T02:31:27.759Z,91.32
2024-01-14T02:33:54.809Z,92.75
2024-01-14T02:36:21.758Z,93.03
2024-01-14T02:38:48.673Z,92.72
2024-01-14T02:41:15.510Z,95.22
2024-01-14T02:43:43.730Z,94.66
2024-01-14T02:46:10.547Z,93.26
2024-01-14T02:48:37.476Z,89.54
2024-01-14T02:51:04.733Z,88.35
2024-01-14T02:53:31.630Z,92.05
2024-01-14T02:55:58.464Z,94.67
2024-01-14T02:58:25.322Z,92.80
2024-01-14T03:00:53.712Z,90.71
2024-01-14T03:03:20.660Z,91.56
2024-01-14T03:05:47.564Z,92.76
2024-01-14T03:08:14.920Z,80.55
2024-01-14T03:10:41.890Z,88.03
2024-01-14T03:13:08.741Z,91.88
2024-01-14T03:15:35.552Z,92.55
2024-01-14T03:18:04.357Z,89.33
2024-01-14T03:20:31.278Z,91.96
2024-01-14T03:22:58.088Z,93.70
2024-01-14T03:25:24.941Z,94.45
2024-01-14T03:27:51.757Z,92.60
2024-01-14T03:30:18.726Z,89.21
2024-01-14T03:32:45.745Z,88.82
2024-01-14T03:35:14.090Z,93.80
2024-01-14T03:37:40.895Z,93.74
2024-01-14T03:40:08.870Z,85.38
2024-01-14T03:42:35.705Z,84.16
2024-01-14T03:45:02.720Z,88.81
2024-01-14T03:47:29.646Z,93.44
2024-01-14T03:49:56.592Z,98.08
2024-01-14T03:52:24.787Z,95.22
2024-01-14T03:54:51.565Z,95.74
2024-01-14T03:57:18.572Z,90.00
2024-01-14T03:59:45.441Z,93.06
2024-01-14T04:02:12.211Z,95.74
2024-01-14T04:04:39.076Z,97.41
2024-01-14T04:07:05.979Z,98.73
2024-01-14T04:09:34.385Z,90.36
2024-01-14T04:12:01.312Z,98.04
2024-01-14T04:14:28.133Z,94.24
2024-01-14T04:16:54.969Z,94.98
2024-01-14T04:19:21.806Z,90.92
2024-01-14T04:21:48.665Z,93.30
2024-01-14T04:24:15.556Z,94.41
2024-01-14T04:26:43.837Z,89.15
2024-01-14T04:29:10.651Z,89.10
2024-01-14T04:31:37.442Z,92.24
2024-01-14T04:34:04.944Z,91.62
2024-01-14T04:36:31.983Z,91.43
2024-01-14T04:38:58.874Z,92.61
2024-01-14T04:41:25.689Z,87.88
2024-01-14T04:43:53.819Z,92.02
2024-01-14T04:46:21.025Z,83.14
2024-01-14T04:48:47.955Z,90.48
2024-01-14T04:51:14.926Z,91.21
2024-01-14T04:53:41.854Z,96.61
2024-01-14T04:56:09.188Z,94.44
2024-01-14T04:58:36.167Z,90.45
2024-01-14T05:01:04.800Z,91.12
2024-01-14T05:03:31.862Z,83.26
2024-01-14T05:05:58.900Z,90.88
2024-01-14T05:08:25.922Z,89.12
2024-01-14T05:10:52.673Z,89.29
2024-01-14T05:13:19.537Z,92.55
2024-01-14T05:15:46.325Z,90.93
2024-01-14T05:18:14.743Z,90.82
2024-01-14T05:20:41.724Z,88.82
2024-01-14T05:23:08.508Z,88.94
2024-01-14T05:25:35.502Z,86.24
2024-01-14T05:28:02.329Z,80.36
2024-01-14T05:30:29.274Z,84.06
2024-01-14T05:32:56.127Z,84.23
2024-01-14T05:35:24.356Z,86.53
2024-01-14T05:37:51.246Z,88.42
2024-01-14T05:40:18.085Z,88.15
2024-01-14T05:42:44.853Z,88.77
2024-01-14T05:45:11.935Z,89.61
2024-01-14T05:47:39.133Z,89.95
2024-01-14T05:50:07.817Z,90.02
2024-01-14T05:52:36.109Z,93.52
2024-01-14T05:55:03.096Z,93.11
2024-01-14T05:57:31.349Z,91.47
2024-01-14T05:59:58.366Z,88.37
2024-01-14T06:02:25.276Z,89.77
2024-01-14T06:04:52.208Z,89.25
2024-01-14T06:07:19.182Z,86.11
2024-01-14T06:09:47.404Z,88.43
2024-01-14T06:12:15.654Z,88.17
2024-01-14T06:14:42.590Z,90.22
2024-01-14T06:17:09.464Z,87.89
2024-01-14T06:19:36.442Z,85.84
2024-01-14T06:22:04.440Z,84.19
2024-01-14T06:24:31.266Z,82.47
2024-01-14T06:26:59.538Z,87.47
2024-01-14T06:29:26.395Z,86.95
2024-01-14T06:31:53.251Z,90.72
2024-01-14T06:34:20.224Z,86.92
2024-01-14T06:36:47.037Z,91.42
2024-01-14T06:39:13.846Z,86.37
2024-01-14T06:41:40.740Z,80.98
2024-01-14T06:44:08.953Z,83.44
2024-01-14T06:46:35.754Z,78.10
2024-01-14T06:49:02.719Z,83.59
2024-01-14T06:51:29.658Z,90.29
2024-01-14T06:53:56.488Z,88.93
2024-01-14T06:56:23.309Z,91.72
2024-01-14T06:58:50.164Z,94.91
2024-01-14T07:01:18.494Z,92.85
2024-01-14T07:03:45.512Z,89.73
2024-01-14T07:06:12.540Z,90.31
2024-01-14T07:08:39.476Z,94.36
2024-01-14T07:11:06.420Z,93.11
2024-01-14T07:13:33.233Z,92.03
2024-01-14T07:16:00.168Z,90.69
2024-01-14T07:18:28.964Z,90.86
2024-01-14T07:20:55.950Z,86.29
2024-01-14T07:23:42.795Z,85.18
2024-01-14T07:26:15.707Z,82.44
2024-01-14T07:28:42.716Z,82.60
2024-01-14T07:31:09.628Z,89.94
2024-01-14T07:33:38.240Z,88.57
2024-01-14T07:36:06.063Z,87.66
2024-01-14T07:38:34.196Z,85.27
2024-01-14T07:41:01.255Z,88.17
2024-01-14T07:43:28.032Z,84.04
2024-01-14T07:45:54.791Z,90.24
2024-01-14T07:48:21.781Z,87.92
2024-01-14T07:50:50.026Z,90.94
2024-01-14T07:53:16.875Z,91.05
2024-01-14T07:55:43.655Z,92.62
2024-01-14T07:58:10.428Z,90.60
2024-01-14T08:00:40.740Z,83.19
2024-01-14T08:03:12.307Z,83.41
2024-01-14T08:05:39.652Z,90.35
2024-01-14T08:08:07.993Z,93.34
2024-01-14T08:10:34.753Z,91.08
2024-01-14T08:13:01.818Z,86.92
2024-01-14T08:15:28.784Z,82.00
2024-01-14T08:17:55.691Z,85.13
2024-01-14T08:20:22.618Z,85.58
2024-01-14T08:22:49.728Z,88.29
2024-01-14T08:25:17.973Z,87.04
2024-01-14T08:27:44.781Z,90.06
2024-01-14T08:30:13.236Z,92.64
2024-01-14T08:32:40.889Z,87.40
2024-01-14T08:35:07.763Z,78.59
2024-01-14T08:37:34.545Z,84.36
2024-01-14T08:40:01.307Z,87.96
2024-01-14T08:42:29.541Z,82.46
2024-01-14T08:44:56.357Z,84.13
2024-01-14T08:47:23.125Z,85.58
2024-01-14T08:49:50.059Z,88.33
2024-01-14T08:52:16.987Z,89.49
2024-01-14T08:54:43.890Z,83.11
2024-01-14T08:57:10.757Z,82.17
2024-01-14T08:59:38.930Z,74.29
2024-01-14T09:02:06.170Z,77.45
2024-01-14T09:04:33.009Z,77.22
2024-01-14T09:06:59.892Z,69.27
2024-01-14T09:09:26.853Z,68.90
2024-01-14T09:11:53.750Z,70.58
2024-01-14T09:14:20.593Z,73.88
2024-01-14T09:16:48.745Z,75.31
2024-01-14T09:19:15.829Z,73.25
2024-01-14T09:21:42.884Z,71.15
2024-01-14T09:24:09.722Z,68.61
2024-01-14T09:26:36.575Z,63.15
2024-01-14T09:29:03.426Z,58.52
2024-01-14T09:31:30.341Z,60.38
2024-01-14T09:33:58.649Z,60.76
2024-01-14T09:36:25.486Z,62.66
2024-01-14T09:38:52.257Z,63.90
2024-01-14T09:41:29.269Z,63.90
2024-01-14T09:43:58.474Z,63.72
2024-01-14T09:46:25.671Z,64.96
2024-01-14T09:48:55.493Z,63.33
2024-01-14T09:51:28.236Z,61.06
2024-01-14T09:53:58.049Z,59.96
2024-01-14T09:56:25.055Z,60.67
2024-01-14T09:58:54.208Z,59.43
2024-01-14T10:01:23.303Z,56.30
2024-01-14T10:03:50.899Z,54.83
2024-01-14T10:06:18.029Z,50.46
2024-01-14T10:08:46.353Z,49.92
2024-01-14T10:11:13.283Z,51.16
2024-01-14T10:13:41.173Z,53.10
2024-01-14T10:16:49.241Z,51.66
2024-01-14T10:18:54.875Z,54.39
2024-01-14T10:21:21.869Z,55.35
2024-01-14T10:23:50.021Z,54.58
2024-01-14T10:26:16.856Z,53.47
2024-01-14T10:28:43.670Z,51.58
2024-01-14T10:31:10.900Z,51.75
2024-01-14T10:33:37.839Z,51.15
2024-01-14T10:36:08.167Z,50.65
2024-01-14T10:38:35.929Z,50.94
2024-01-14T10:41:06.013Z,51.17
2024-01-14T10:43:32.914Z,55.52
2024-01-14T10:46:00.568Z,55.49
2024-01-14T10:48:28.986Z,57.67
2024-01-14T10:51:01.632Z,57.51
2024-01-14T10:53:34.850Z,57.71
2024-01-14T10:56:04.743Z,56.65
2024-01-14T10:58:32.388Z,57.55
2024-01-14T11:01:01.193Z,57.00
2024-01-14T11:03:29.448Z,56.70
2024-01-14T11:05:57.303Z,55.24
2024-01-14T11:08:24.809Z,55.95
2024-01-14T11:10:53.723Z,56.15
2024-01-14T11:13:31.501Z,56.06
2024-01-14T11:16:08.626Z,57.63
2024-01-14T11:18:40.374Z,56.06
2024-01-14T11:21:35.748Z,54.72
2024-01-14T11:24:10.932Z,56.62
2024-01-14T11:26:38.067Z,56.99
2024-01-14T11:29:06.352Z,57.05
2024-01-14T11:32:10.511Z,56.94
2024-01-14T11:34:52.314Z,57.13
2024-01-14T11:37:40.320Z,58.12
2024-01-14T11:40:24.734Z,57.30
2024-01-14T11:42:55.649Z,57.59
2024-01-14T11:45:37.395Z,56.43
2024-01-14T11:48:06.483Z,56.13
2024-01-14T11:50:34.216Z,56.03
2024-01-14T11:53:01.876Z,56.11
2024-01-14T11:55:33.655Z,55.52
2024-01-14T11:58:09.316Z,56.09
2024-01-14T12:00:38.625Z,56.41
2024-01-14T12:03:07.471Z,56.50
2024-01-14T12:05:36.145Z,56.11
2024-01-14T12:08:04.890Z,56.44
2024-01-14T12:10:32.473Z,56.07
2024-01-14T12:13:00.553Z,56.97
2024-01-14T12:15:29.705Z,57.41
2024-01-14T12:18:00.912Z,57.12
2024-01-14T12:20:28.880Z,57.50
2024-01-14T12:22:59.836Z,56.57
2024-01-14T12:25:29.764Z,57.15
2024-01-14T12:27:57.640Z,57.81
2024-01-14T12:30:29.344Z,58.82
2024-01-14T12:32:56.261Z,59.06
2024-01-14T12:35:42.839Z,59.59
2024-01-14T12:38:10.087Z,59.88
2024-01-14T12:40:38.094Z,60.06
2024-01-14T12:43:07.070Z,60.59
2024-01-14T12:45:34.052Z,61.05
2024-01-14T12:48:02.392Z,61.95
2024-01-14T12:50:30.546Z,62.21
2024-01-14T12:53:05.953Z,62.50
2024-01-14T12:55:32.943Z,62.94
2024-01-14T12:58:00.424Z,63.04
2024-01-14T13:00:28.265Z,63.20
2024-01-14T13:02:56.679Z,63.96
2024-01-14T13:05:24.086Z,64.03
2024-01-14T13:07:51.502Z,63.57
2024-01-14T13:10:20.090Z,66.94
2024-01-14T13:12:47.378Z,66.62
2024-01-14T13:15:14.678Z,66.02
2024-01-14T13:17:41.764Z,66.97
2024-01-14T13:20:09.482Z,67.31
2024-01-14T13:22:36.776Z,67.47
2024-01-14T13:25:03.920Z,67.06
2024-01-14T13:27:32.942Z,67.25
2024-01-14T13:30:00.770Z,68.51
2024-01-14T13:32:27.681Z,69.29
2024-01-14T13:34:54.485Z,69.25
2024-01-14T13:37:22.803Z,69.29
2024-01-14T13:39:50.876Z,69.04
2024-01-14T13:42:17.824Z,68.59
2024-01-14T13:44:45.999Z,66.21
2024-01-14T13:47:12.947Z,66.29
2024-01-14T13:49:39.747Z,66.62
2024-01-14T13:52:07.267Z,66.19
2024-01-14T13:54:34.515Z,63.05
2024-01-14T13:57:01.363Z,64.40
2024-01-14T13:59:28.470Z,66.08
2024-01-14T14:01:56.867Z,67.14
2024-01-14T14:04:27.067Z,68.38
2024-01-14T14:06:55.107Z,67.73
2024-01-14T14:09:22.441Z,67.94
2024-01-14T14:11:49.425Z,68.33
2024-01-14T14:14:16.204Z,68.10
2024-01-14T14:16:43.844Z,68.09
2024-01-14T14:19:13.716Z,68.13
2024-01-14T14:21:53.764Z,68.05
2024-01-14T14:24:26.057Z,68.88
2024-01-14T14:26:53.414Z,69.74
2024-01-14T14:29:23.042Z,71.35
2024-01-14T14:31:51.653Z,71.71
2024-01-14T14:34:21.069Z,71.39
2024-01-14T14:36:49.291Z,71.09
2024-01-14T14:39:17.242Z,71.10
2024-01-14T14:41:44.873Z,71.44
2024-01-14T14:44:12.282Z,71.03
2024-01-14T14:46:40.751Z,71.80
2024-01-14T14:49:13.033Z,72.74
2024-01-14T14:51:45.235Z,73.16
2024-01-14T14:54:14.027Z,72.63
2024-01-14T14:56:43.967Z,72.43
2024-01-14T14:59:11.136Z,71.53
2024-01-14T15:01:43.199Z,70.27
2024-01-14T15:04:14.723Z,69.63
2024-01-14T15:06:45.718Z,71.91
2024-01-14T15:09:13.710Z,72.69
2024-01-14T15:11:42.000Z,71.93
2024-01-14T15:14:10.226Z,75.13
2024-01-14T15:16:37.555Z,75.79
2024-01-14T15:19:07.167Z,80.85
2024-01-14T15:21:36.448Z,82.76
2024-01-14T15:24:09.616Z,82.50
2024-01-14T15:26:41.452Z,82.38
2024-01-14T15:29:14.008Z,83.11
2024-01-14T15:31:49.102Z,83.44
2024-01-14T15:34:17.306Z,84.21
2024-01-14T15:36:47.858Z,85.54
2024-01-14T15:39:17.226Z,87.18
2024-01-14T15:41:46.297Z,88.82
2024-01-14T15:44:13.854Z,89.46
2024-01-14T15:46:41.432Z,93.26
2024-01-14T15:49:08.858Z,100.00
2024-01-14T15:51:35.929Z,99.89
2024-01-14T15:54:03.745Z,100.00
2024-01-14T15:56:33.067Z,100.00
2024-01-14T15:58:59.956Z,100.00
2024-01-14T16:01:27.582Z,100.00
2024-01-14T16:03:55.494Z,98.04
2024-01-14T16:06:23.114Z,99.11
2024-01-14T16:08:50.938Z,100.00
2024-01-14T16:11:18.449Z,100.00
2024-01-14T16:13:47.275Z,100.00
2024-01-14T16:16:14.731Z,100.00
2024-01-14T16:18:41.768Z,99.08
2024-01-14T16:21:09.138Z,99.28
2024-01-14T16:23:37.763Z,100.00
2024-01-14T16:26:05.907Z,100.00
2024-01-14T16:28:33.265Z,100.00
2024-01-14T16:31:10.190Z,100.00
2024-01-14T16:33:40.859Z,100.00
2024-01-14T16:36:08.322Z,96.92
2024-01-14T16:38:35.259Z,94.51
2024-01-14T16:41:05.060Z,92.96
2024-01-14T16:43:33.347Z,95.41
2024-01-14T16:46:01.703Z,95.70
2024-01-14T16:48:28.657Z,97.20
2024-01-14T16:51:05.767Z,94.08
2024-01-14T16:53:36.525Z,89.30
2024-01-14T16:56:04.021Z,88.87
2024-01-14T16:58:32.507Z,88.90
2024-01-14T17:03:30.618Z,88.85
2024-01-14T17:05:57.599Z,91.38
2024-01-14T17:08:24.377Z,91.12
2024-01-14T17:11:00.541Z,91.48
2024-01-14T17:13:30.428Z,93.04
2024-01-14T17:16:05.682Z,95.35
2024-01-14T17:18:38.611Z,94.06
2024-01-14T17:21:05.759Z,90.53
2024-01-14T17:23:32.592Z,90.30
2024-01-14T17:26:07.161Z,91.65
2024-01-14T17:28:36.072Z,93.69
2024-01-14T17:31:03.421Z,91.95
2024-01-14T17:33:34.315Z,92.18
2024-01-14T17:36:05.812Z,93.87
2024-01-14T17:38:34.394Z,93.56
2024-01-14T17:41:02.496Z,94.03
2024-01-14T17:43:30.469Z,91.26
2024-01-14T17:46:06.255Z,89.57
2024-01-14T17:48:36.280Z,87.96
2024-01-14T17:51:05.607Z,89.01
2024-01-14T17:53:32.609Z,89.21
2024-01-14T17:55:59.594Z,89.20
2024-01-14T17:58:26.460Z,92.98
2024-01-14T18:00:53.756Z,89.44
2024-01-14T18:03:21.067Z,91.96
2024-01-14T18:05:48.269Z,90.43
2024-01-14T18:08:16.734Z,92.34
2024-01-14T18:10:43.941Z,90.10
2024-01-14T18:13:13.605Z,91.77
2024-01-14T18:15:42.854Z,88.93
2024-01-14T18:18:10.493Z,88.23
2024-01-14T18:20:37.615Z,87.66
2024-01-14T18:23:10.120Z,87.46
2024-01-14T18:25:41.307Z,90.83
2024-01-14T18:28:08.410Z,93.28
2024-01-14T18:30:36.131Z,93.24
2024-01-14T18:33:10.688Z,92.12
2024-01-14T18:35:41.193Z,91.80
2024-01-14T18:38:08.780Z,89.04
2024-01-14T18:40:35.783Z,89.62
2024-01-14T18:43:04.753Z,92.46
2024-01-14T18:45:31.760Z,91.05
2024-01-14T18:47:59.672Z,91.78
2024-01-14T18:50:27.720Z,93.76
2024-01-14T18:52:54.928Z,95.29
2024-01-14T18:55:22.222Z,95.35
2024-01-14T18:57:49.512Z,96.16
2024-01-14T19:00:19.594Z,96.65
2024-01-14T19:02:46.797Z,96.80
2024-01-14T19:05:14.013Z,95.26
2024-01-14T19:07:41.315Z,94.62
2024-01-14T19:10:10.264Z,95.85
2024-01-14T19:12:38.083Z,95.74
2024-01-14T19:15:06.821Z,95.79
2024-01-14T19:17:38.071Z,96.15
2024-01-14T19:20:06.345Z,94.16
2024-01-14T19:22:33.517Z,95.36
2024-01-14T19:25:00.703Z,96.90
2024-01-14T19:27:28.004Z,98.08
2024-01-14T19:29:55.561Z,97.83
2024-01-14T19:32:22.508Z,98.71
2024-01-14T19:34:51.161Z,98.70
2024-01-14T19:37:18.457Z,97.83
2024-01-14T19:39:48.587Z,98.60
2024-01-14T19:42:15.846Z,97.64
2024-01-14T19:44:42.956Z,98.44
2024-01-14T19:47:09.904Z,99.06
2024-01-14T19:49:36.932Z,100.00
2024-01-14T19:52:05.951Z,98.94
2024-01-14T19:54:35.725Z,98.77
2024-01-14T19:57:04.365Z,100.00
2024-01-14T19:59:34.050Z,100.00
2024-01-14T20:02:03.148Z,100.00
2024-01-14T20:04:31.057Z,100.00
2024-01-14T20:06:58.640Z,98.65
2024-01-14T20:09:30.055Z,100.00
2024-01-14T20:11:57.756Z,99.68
2024-01-14T20:14:24.824Z,95.69
2024-01-14T20:16:51.743Z,92.84
2024-01-14T20:19:18.798Z,94.90
2024-01-14T20:21:45.740Z,95.75
2024-01-14T20:24:12.966Z,97.25
2024-01-14T20:26:41.605Z,96.01
2024-01-14T20:29:08.488Z,95.62
2024-01-14T20:31:35.561Z,94.54
2024-01-14T20:34:02.639Z,92.68
2024-01-14T20:36:29.778Z,93.90
2024-01-14T20:38:56.741Z,95.73
2024-01-14T20:41:23.748Z,97.92
2024-01-14T20:43:52.243Z,97.71
2024-01-14T20:46:19.479Z,96.66
2024-01-14T20:48:46.733Z,97.39
2024-01-14T20:51:13.874Z,98.45
2024-01-14T20:53:40.759Z,98.63
2024-01-14T20:56:07.693Z,97.72
2024-01-14T20:58:34.628Z,98.09
2024-01-14T21:01:05.983Z,97.57
2024-01-14T21:03:33.435Z,100.00
2024-01-14T21:06:00.840Z,100.00
2024-01-14T21:08:28.960Z,99.62
2024-01-14T21:10:56.244Z,99.64
2024-01-14T21:13:23.443Z,98.03
2024-01-14T21:15:51.800Z,97.19
2024-01-14T21:18:23.327Z,98.81
2024-01-14T21:20:51.214Z,97.09
2024-01-14T21:23:19.155Z,95.54
2024-01-14T21:25:46.379Z,95.59
2024-01-14T21:28:13.630Z,97.04
2024-01-14T21:30:41.300Z,99.50
2024-01-14T21:33:08.718Z,99.82
2024-01-14T21:35:37.457Z,98.08
2024-01-14T21:38:04.982Z,97.44
2024-01-14T21:40:32.134Z,97.95
2024-01-14T21:42:59.495Z,98.96
2024-01-14T21:45:26.541Z,100.00
2024-01-14T21:47:53.547Z,100.00
2024-01-14T21:50:20.671Z,96.59
2024-01-14T21:52:49.208Z,98.49
2024-01-14T21:55:16.332Z,100.00
2024-01-14T21:57:43.335Z,100.00
2024-01-14T22:00:11.473Z,99.07
2024-01-14T22:02:38.401Z,100.00
2024-01-14T22:05:06.095Z,100.00
2024-01-14T22:07:33.131Z,100.00
2024-01-14T22:10:01.456Z,99.71
2024-01-14T22:12:28.517Z,100.00
2024-01-14T22:14:55.358Z,100.00
2024-01-14T22:17:22.356Z,99.79
2024-01-14T22:19:49.497Z,99.33
2024-01-14T22:22:16.400Z,100.00
2024-01-14T22:24:43.337Z,100.00
2024-01-14T22:27:11.627Z,100.00
2024-01-14T22:29:38.405Z,100.00
2024-01-14T22:32:05.615Z,100.00
2024-01-14T22:34:32.874Z,100.00
2024-01-14T22:36:59.787Z,99.87
2024-01-14T22:39:26.566Z,100.00
2024-01-14T22:41:53.453Z,99.42
2024-01-14T22:44:21.731Z,100.00
2024-01-14T22:46:48.541Z,99.40
2024-01-14T22:49:15.397Z,97.93
2024-01-14T22:51:42.600Z,97.20
2024-01-14T22:54:09.954Z,97.60
2024-01-14T22:56:36.812Z,96.97
2024-01-14T22:59:03.984Z,98.87
2024-01-14T23:01:32.185Z,100.00
2024-01-14T23:03:59.210Z,98.99
2024-01-14T23:06:26.140Z,98.75
2024-01-14T23:08:53.063Z,99.76
2024-01-14T23:11:19.885Z,100.00
2024-01-14T23:13:46.704Z,100.00
2024-01-14T23:16:13.624Z,100.00
2024-01-14T23:18:41.966Z,100.00
2024-01-14T23:21:08.820Z,100.00
2024-01-14T23:23:35.715Z,100.00
2024-01-14T23:26:02.564Z,100.00
2024-01-14T23:28:29.400Z,100.00
2024-01-14T23:30:56.311Z,100.00
2024-01-14T23:33:23.533Z,100.00
2024-01-14T23:35:51.789Z,100.00
2024-01-14T23:38:18.592Z,100.00
2024-01-14T23:40:45.474Z,100.00
2024-01-14T23:43:12.328Z,100.00
2024-01-14T23:45:39.530Z,100.00
2024-01-14T23:48:06.877Z,100.00
2024-01-14T23:50:33.816Z,100.00
2024-01-14T23:53:02.103Z,100.00
2024-01-14T23:55:29.103Z,100.00
2024-01-14T23:57:55.930Z,99.41
